sensor_id;sensor_type;location;lat;lon;timestamp;P1;durP1;ratioP1;P2;durP2;ratioP2
7517;SDS011;3800;48.922;9.444;2023-02-28T00:00:27;3.33;;;3.03;;
7517;SDS011;3800;48.922;9.444;2023-02-28T00:02:54;5.27;;;3.60;;
7517;SDS011;3800;48.922;9.444;2023-02-28T00:05:22;3.97;;;3.07;;
7517;SDS011;3800;48.922;9.444;2023-02-28T00:07:50;5.37;;;3.40;;
7517;SDS011;3800;48.922;9.444;2023-02-28T00:10:19;3.20;;;2.90;;
7517;SDS011;3800;48.922;9.444;2023-02-28T00:12:47;3.27;;;2.97;;
7517;SDS011;3800;48.922;9.444;2023-02-28T00:15:14;4.13;;;3.33;;
7517;SDS011;3800;48.922;9.444;2023-02-28T00:17:42;4.20;;;3.80;;
7517;SDS011;3800;48.922;9.444;2023-02-28T00:20:10;3.73;;;3.33;;
7517;SDS011;3800;48.922;9.444;2023-02-28T00:22:39;3.37;;;3.07;;
7517;SDS011;3800;48.922;9.444;2023-02-28T00:25:06;4.53;;;4.00;;
7517;SDS011;3800;48.922;9.444;2023-02-28T00:27:34;4.13;;;3.50;;
7517;SDS011;3800;48.922;9.444;2023-02-28T00:30:02;3.90;;;3.50;;
7517;SDS011;3800;48.922;9.444;2023-02-28T00:32:30;3.70;;;3.40;;
7517;SDS011;3800;48.922;9.444;2023-02-28T00:34:58;5.60;;;3.60;;
7517;SDS011;3800;48.922;9.444;2023-02-28T00:37:26;4.60;;;3.20;;
7517;SDS011;3800;48.922;9.444;2023-02-28T00:39:54;4.20;;;3.80;;
7517;SDS011;3800;48.922;9.444;2023-02-28T00:42:21;4.03;;;3.70;;
7517;SDS011;3800;48.922;9.444;2023-02-28T00:44:49;4.73;;;3.53;;
7517;SDS011;3800;48.922;9.444;2023-02-28T00:47:17;3.90;;;3.60;;
7517;SDS011;3800;48.922;9.444;2023-02-28T00:49:44;5.00;;;3.70;;
7517;SDS011;3800;48.922;9.444;2023-02-28T00:52:12;4.17;;;3.77;;
7517;SDS011;3800;48.922;9.444;2023-02-28T00:54:40;4.10;;;3.70;;
7517;SDS011;3800;48.922;9.444;2023-02-28T00:57:08;3.70;;;3.40;;
7517;SDS011;3800;48.922;9.444;2023-02-28T00:59:36;4.23;;;3.90;;
7517;SDS011;3800;48.922;9.444;2023-02-28T01:02:03;4.97;;;3.90;;
7517;SDS011;3800;48.922;9.444;2023-02-28T01:04:31;4.63;;;3.77;;
7517;SDS011;3800;48.922;9.444;2023-02-28T01:06:58;4.03;;;3.73;;
7517;SDS011;3800;48.922;9.444;2023-02-28T01:09:26;4.63;;;3.73;;
7517;SDS011;3800;48.922;9.444;2023-02-28T01:11:54;6.37;;;5.13;;
7517;SDS011;3800;48.922;9.444;2023-02-28T01:14:21;4.53;;;4.13;;
7517;SDS011;3800;48.922;9.444;2023-02-28T01:16:49;5.70;;;4.20;;
7517;SDS011;3800;48.922;9.444;2023-02-28T01:19:17;4.57;;;4.17;;
7517;SDS011;3800;48.922;9.444;2023-02-28T01:21:45;4.50;;;4.07;;
7517;SDS011;3800;48.922;9.444;2023-02-28T01:24:13;4.53;;;3.93;;
7517;SDS011;3800;48.922;9.444;2023-02-28T01:26:40;5.57;;;4.27;;
7517;SDS011;3800;48.922;9.444;2023-02-28T01:29:08;4.97;;;4.10;;
7517;SDS011;3800;48.922;9.444;2023-02-28T01:31:36;5.43;;;4.10;;
7517;SDS011;3800;48.922;9.444;2023-02-28T01:34:03;4.63;;;4.00;;
7517;SDS011;3800;48.922;9.444;2023-02-28T01:36:31;5.40;;;4.10;;
7517;SDS011;3800;48.922;9.444;2023-02-28T01:38:58;4.70;;;4.30;;
7517;SDS011;3800;48.922;9.444;2023-02-28T01:41:28;4.90;;;4.40;;
7517;SDS011;3800;48.922;9.444;2023-02-28T01:43:56;4.43;;;3.97;;
7517;SDS011;3800;48.922;9.444;2023-02-28T01:46:22;5.50;;;3.97;;
7517;SDS011;3800;48.922;9.444;2023-02-28T01:48:51;4.33;;;3.93;;
7517;SDS011;3800;48.922;9.444;2023-02-28T01:51:20;5.60;;;4.87;;
7517;SDS011;3800;48.922;9.444;2023-02-28T01:53:49;7.47;;;4.60;;
7517;SDS011;3800;48.922;9.444;2023-02-28T01:56:17;5.00;;;4.10;;
7517;SDS011;3800;48.922;9.444;2023-02-28T01:58:42;4.40;;;4.00;;
7517;SDS011;3800;48.922;9.444;2023-02-28T02:01:10;4.50;;;4.10;;
7517;SDS011;3800;48.922;9.444;2023-02-28T02:03:38;4.63;;;4.23;;
7517;SDS011;3800;48.922;9.444;2023-02-28T02:06:05;4.93;;;4.43;;
7517;SDS011;3800;48.922;9.444;2023-02-28T02:08:33;5.77;;;4.40;;
7517;SDS011;3800;48.922;9.444;2023-02-28T02:11:01;4.93;;;3.90;;
7517;SDS011;3800;48.922;9.444;2023-02-28T02:16:17;5.00;;;4.50;;
7517;SDS011;3800;48.922;9.444;2023-02-28T02:18:58;5.00;;;4.50;;
7517;SDS011;3800;48.922;9.444;2023-02-28T02:21:38;5.20;;;4.30;;
7517;SDS011;3800;48.922;9.444;2023-02-28T02:24:33;5.03;;;4.27;;
7517;SDS011;3800;48.922;9.444;2023-02-28T02:27:24;4.57;;;4.17;;
7517;SDS011;3800;48.922;9.444;2023-02-28T02:30:14;5.87;;;4.70;;
7517;SDS011;3800;48.922;9.444;2023-02-28T02:32:49;5.67;;;4.93;;
7517;SDS011;3800;48.922;9.444;2023-02-28T02:35:23;4.87;;;4.27;;
7517;SDS011;3800;48.922;9.444;2023-02-28T02:37:57;5.67;;;4.80;;
7517;SDS011;3800;48.922;9.444;2023-02-28T02:40:23;6.10;;;4.90;;
7517;SDS011;3800;48.922;9.444;2023-02-28T02:45:46;5.77;;;5.13;;
7517;SDS011;3800;48.922;9.444;2023-02-28T02:48:13;5.67;;;4.67;;
7517;SDS011;3800;48.922;9.444;2023-02-28T02:50:42;5.50;;;5.00;;
7517;SDS011;3800;48.922;9.444;2023-02-28T02:53:10;5.17;;;4.57;;
7517;SDS011;3800;48.922;9.444;2023-02-28T02:55:39;6.43;;;5.17;;
7517;SDS011;3800;48.922;9.444;2023-02-28T02:58:08;4.83;;;4.37;;
7517;SDS011;3800;48.922;9.444;2023-02-28T03:00:36;6.27;;;4.83;;
7517;SDS011;3800;48.922;9.444;2023-02-28T03:03:04;6.27;;;4.60;;
7517;SDS011;3800;48.922;9.444;2023-02-28T03:05:34;6.10;;;4.83;;
7517;SDS011;3800;48.922;9.444;2023-02-28T03:08:03;6.20;;;4.60;;
7517;SDS011;3800;48.922;9.444;2023-02-28T03:10:31;5.73;;;5.00;;
7517;SDS011;3800;48.922;9.444;2023-02-28T03:15:53;5.53;;;4.60;;
7517;SDS011;3800;48.922;9.444;2023-02-28T03:18:36;6.13;;;5.37;;
7517;SDS011;3800;48.922;9.444;2023-02-28T03:21:20;5.73;;;4.93;;
7517;SDS011;3800;48.922;9.444;2023-02-28T03:23:48;5.33;;;4.80;;
7517;SDS011;3800;48.922;9.444;2023-02-28T03:26:18;6.03;;;5.20;;
7517;SDS011;3800;48.922;9.444;2023-02-28T03:28:52;5.43;;;4.83;;
7517;SDS011;3800;48.922;9.444;2023-02-28T03:31:37;5.77;;;5.10;;
7517;SDS011;3800;48.922;9.444;2023-02-28T03:34:05;5.67;;;4.60;;
7517;SDS011;3800;48.922;9.444;2023-02-28T03:36:36;5.53;;;5.03;;
7517;SDS011;3800;48.922;9.444;2023-02-28T03:39:04;5.93;;;5.20;;
7517;SDS011;3800;48.922;9.444;2023-02-28T03:41:34;6.13;;;4.97;;
7517;SDS011;3800;48.922;9.444;2023-02-28T03:44:02;5.40;;;4.90;;
7517;SDS011;3800;48.922;9.444;2023-02-28T03:46:31;5.43;;;4.90;;
7517;SDS011;3800;48.922;9.444;2023-02-28T03:49:02;6.17;;;4.83;;
7517;SDS011;3800;48.922;9.444;2023-02-28T03:51:29;7.30;;;5.20;;
7517;SDS011;3800;48.922;9.444;2023-02-28T03:53:58;5.87;;;5.20;;
7517;SDS011;3800;48.922;9.444;2023-02-28T03:56:26;5.43;;;4.93;;
7517;SDS011;3800;48.922;9.444;2023-02-28T03:59:02;6.00;;;5.03;;
7517;SDS011;3800;48.922;9.444;2023-02-28T04:01:35;6.60;;;5.20;;
7517;SDS011;3800;48.922;9.444;2023-02-28T04:04:01;5.77;;;5.17;;
7517;SDS011;3800;48.922;9.444;2023-02-28T04:06:30;5.63;;;5.13;;
7517;SDS011;3800;48.922;9.444;2023-02-28T04:08:56;7.53;;;5.27;;
7517;SDS011;3800;48.922;9.444;2023-02-28T04:11:29;5.67;;;5.10;;
7517;SDS011;3800;48.922;9.444;2023-02-28T04:14:09;9.33;;;5.40;;
7517;SDS011;3800;48.922;9.444;2023-02-28T04:16:38;6.00;;;5.40;;
7517;SDS011;3800;48.922;9.444;2023-02-28T04:19:05;5.70;;;5.10;;
7517;SDS011;3800;48.922;9.444;2023-02-28T04:21:33;6.20;;;5.57;;
7517;SDS011;3800;48.922;9.444;2023-02-28T04:24:00;8.03;;;5.30;;
7517;SDS011;3800;48.922;9.444;2023-02-28T04:26:31;6.83;;;5.43;;
7517;SDS011;3800;48.922;9.444;2023-02-28T04:28:59;7.23;;;5.30;;
7517;SDS011;3800;48.922;9.444;2023-02-28T04:31:26;6.20;;;5.60;;
7517;SDS011;3800;48.922;9.444;2023-02-28T04:33:54;6.43;;;5.33;;
7517;SDS011;3800;48.922;9.444;2023-02-28T04:36:22;6.87;;;6.17;;
7517;SDS011;3800;48.922;9.444;2023-02-28T04:38:49;7.20;;;5.00;;
7517;SDS011;3800;48.922;9.444;2023-02-28T04:41:18;7.10;;;5.60;;
7517;SDS011;3800;48.922;9.444;2023-02-28T04:43:44;6.57;;;5.80;;
7517;SDS011;3800;48.922;9.444;2023-02-28T04:46:12;6.13;;;5.53;;
7517;SDS011;3800;48.922;9.444;2023-02-28T04:48:40;6.70;;;5.77;;
7517;SDS011;3800;48.922;9.444;2023-02-28T04:51:08;6.03;;;5.30;;
7517;SDS011;3800;48.922;9.444;2023-02-28T04:53:36;8.27;;;5.70;;
7517;SDS011;3800;48.922;9.444;2023-02-28T04:56:03;7.33;;;5.67;;
7517;SDS011;3800;48.922;9.444;2023-02-28T04:58:30;6.93;;;6.33;;
7517;SDS011;3800;48.922;9.444;2023-02-28T05:01:04;6.93;;;6.17;;
7517;SDS011;3800;48.922;9.444;2023-02-28T05:03:31;6.50;;;5.80;;
7517;SDS011;3800;48.922;9.444;2023-02-28T05:05:59;8.27;;;6.67;;
7517;SDS011;3800;48.922;9.444;2023-02-28T05:08:26;6.67;;;5.83;;
7517;SDS011;3800;48.922;9.444;2023-02-28T05:10:54;6.50;;;5.90;;
7517;SDS011;3800;48.922;9.444;2023-02-28T05:13:22;6.67;;;5.97;;
7517;SDS011;3800;48.922;9.444;2023-02-28T05:15:49;8.67;;;6.43;;
7517;SDS011;3800;48.922;9.444;2023-02-28T05:18:18;8.57;;;6.13;;
7517;SDS011;3800;48.922;9.444;2023-02-28T05:20:45;7.67;;;5.67;;
7517;SDS011;3800;48.922;9.444;2023-02-28T05:23:13;7.43;;;5.13;;
7517;SDS011;3800;48.922;9.444;2023-02-28T05:25:41;7.07;;;6.00;;
7517;SDS011;3800;48.922;9.444;2023-02-28T05:28:08;6.87;;;6.17;;
7517;SDS011;3800;48.922;9.444;2023-02-28T05:30:36;7.50;;;5.90;;
7517;SDS011;3800;48.922;9.444;2023-02-28T05:33:04;7.23;;;5.33;;
7517;SDS011;3800;48.922;9.444;2023-02-28T05:35:31;7.40;;;6.23;;
7517;SDS011;3800;48.922;9.444;2023-02-28T05:37:59;7.77;;;6.00;;
7517;SDS011;3800;48.922;9.444;2023-02-28T05:40:26;7.13;;;6.23;;
7517;SDS011;3800;48.922;9.444;2023-02-28T05:42:54;6.40;;;5.80;;
7517;SDS011;3800;48.922;9.444;2023-02-28T05:45:22;6.80;;;6.10;;
7517;SDS011;3800;48.922;9.444;2023-02-28T05:47:53;7.17;;;6.30;;
7517;SDS011;3800;48.922;9.444;2023-02-28T05:50:17;7.93;;;6.13;;
7517;SDS011;3800;48.922;9.444;2023-02-28T05:52:48;8.60;;;6.20;;
7517;SDS011;3800;48.922;9.444;2023-02-28T05:55:12;6.37;;;5.63;;
7517;SDS011;3800;48.922;9.444;2023-02-28T05:57:40;11.10;;;6.90;;
7517;SDS011;3800;48.922;9.444;2023-02-28T06:00:08;7.10;;;6.17;;
7517;SDS011;3800;48.922;9.444;2023-02-28T06:02:37;7.27;;;6.00;;
7517;SDS011;3800;48.922;9.444;2023-02-28T06:05:05;6.57;;;5.97;;
7517;SDS011;3800;48.922;9.444;2023-02-28T06:07:33;7.90;;;6.17;;
7517;SDS011;3800;48.922;9.444;2023-02-28T06:10:00;8.30;;;6.17;;
7517;SDS011;3800;48.922;9.444;2023-02-28T06:12:28;8.40;;;6.10;;
7517;SDS011;3800;48.922;9.444;2023-02-28T06:14:56;7.60;;;6.90;;
7517;SDS011;3800;48.922;9.444;2023-02-28T06:17:24;11.10;;;6.90;;
7517;SDS011;3800;48.922;9.444;2023-02-28T06:19:52;8.20;;;5.97;;
7517;SDS011;3800;48.922;9.444;2023-02-28T06:22:20;8.10;;;7.17;;
7517;SDS011;3800;48.922;9.444;2023-02-28T06:24:48;8.00;;;6.50;;
7517;SDS011;3800;48.922;9.444;2023-02-28T06:27:16;6.53;;;5.93;;
7517;SDS011;3800;48.922;9.444;2023-02-28T06:29:44;7.87;;;6.53;;
7517;SDS011;3800;48.922;9.444;2023-02-28T06:32:11;8.00;;;6.30;;
7517;SDS011;3800;48.922;9.444;2023-02-28T06:34:39;6.97;;;6.23;;
7517;SDS011;3800;48.922;9.444;2023-02-28T06:37:07;7.80;;;6.83;;
7517;SDS011;3800;48.922;9.444;2023-02-28T06:39:35;8.00;;;7.10;;
7517;SDS011;3800;48.922;9.444;2023-02-28T06:42:03;7.27;;;6.57;;
7517;SDS011;3800;48.922;9.444;2023-02-28T06:44:31;9.33;;;6.43;;
7517;SDS011;3800;48.922;9.444;2023-02-28T06:46:59;7.63;;;6.60;;
7517;SDS011;3800;48.922;9.444;2023-02-28T06:49:27;8.03;;;6.33;;
7517;SDS011;3800;48.922;9.444;2023-02-28T06:51:54;8.23;;;6.70;;
7517;SDS011;3800;48.922;9.444;2023-02-28T06:54:23;8.33;;;6.80;;
7517;SDS011;3800;48.922;9.444;2023-02-28T06:56:50;7.23;;;6.47;;
7517;SDS011;3800;48.922;9.444;2023-02-28T06:59:18;7.07;;;6.20;;
7517;SDS011;3800;48.922;9.444;2023-02-28T07:01:46;7.03;;;6.33;;
7517;SDS011;3800;48.922;9.444;2023-02-28T07:04:13;9.43;;;6.90;;
7517;SDS011;3800;48.922;9.444;2023-02-28T07:06:41;7.60;;;6.63;;
7517;SDS011;3800;48.922;9.444;2023-02-28T07:09:09;6.83;;;6.23;;
7517;SDS011;3800;48.922;9.444;2023-02-28T07:11:38;7.80;;;7.00;;
7517;SDS011;3800;48.922;9.444;2023-02-28T07:14:06;9.57;;;6.80;;
7517;SDS011;3800;48.922;9.444;2023-02-28T07:16:33;8.50;;;6.77;;
7517;SDS011;3800;48.922;9.444;2023-02-28T07:19:02;8.30;;;7.27;;
7517;SDS011;3800;48.922;9.444;2023-02-28T07:21:30;7.87;;;7.07;;
7517;SDS011;3800;48.922;9.444;2023-02-28T07:23:58;8.03;;;7.13;;
7517;SDS011;3800;48.922;9.444;2023-02-28T07:26:26;8.07;;;7.27;;
7517;SDS011;3800;48.922;9.444;2023-02-28T07:28:54;7.90;;;6.77;;
7517;SDS011;3800;48.922;9.444;2023-02-28T07:31:23;7.67;;;6.87;;
7517;SDS011;3800;48.922;9.444;2023-02-28T07:33:51;9.10;;;6.93;;
7517;SDS011;3800;48.922;9.444;2023-02-28T07:36:19;12.17;;;7.47;;
7517;SDS011;3800;48.922;9.444;2023-02-28T07:38:47;8.33;;;7.50;;
7517;SDS011;3800;48.922;9.444;2023-02-28T07:41:15;8.00;;;7.30;;
7517;SDS011;3800;48.922;9.444;2023-02-28T07:43:43;8.53;;;7.33;;
7517;SDS011;3800;48.922;9.444;2023-02-28T07:46:11;9.83;;;7.50;;
7517;SDS011;3800;48.922;9.444;2023-02-28T07:48:38;8.43;;;7.40;;
7517;SDS011;3800;48.922;9.444;2023-02-28T07:51:06;9.37;;;8.13;;
7517;SDS011;3800;48.922;9.444;2023-02-28T07:53:33;9.67;;;7.57;;
7517;SDS011;3800;48.922;9.444;2023-02-28T07:56:01;8.27;;;7.43;;
7517;SDS011;3800;48.922;9.444;2023-02-28T07:58:30;9.40;;;7.47;;
7517;SDS011;3800;48.922;9.444;2023-02-28T08:00:57;8.33;;;6.93;;
7517;SDS011;3800;48.922;9.444;2023-02-28T08:03:25;9.50;;;7.83;;
7517;SDS011;3800;48.922;9.444;2023-02-28T08:05:52;11.37;;;8.20;;
7517;SDS011;3800;48.922;9.444;2023-02-28T08:08:20;9.00;;;7.60;;
7517;SDS011;3800;48.922;9.444;2023-02-28T08:10:48;10.17;;;8.33;;
7517;SDS011;3800;48.922;9.444;2023-02-28T08:13:17;9.07;;;7.57;;
7517;SDS011;3800;48.922;9.444;2023-02-28T08:15:44;8.60;;;7.70;;
7517;SDS011;3800;48.922;9.444;2023-02-28T08:18:12;9.27;;;7.23;;
7517;SDS011;3800;48.922;9.444;2023-02-28T08:20:40;9.63;;;7.80;;
7517;SDS011;3800;48.922;9.444;2023-02-28T08:23:07;9.13;;;8.07;;
7517;SDS011;3800;48.922;9.444;2023-02-28T08:25:35;11.03;;;8.67;;
7517;SDS011;3800;48.922;9.444;2023-02-28T08:28:05;9.03;;;8.07;;
7517;SDS011;3800;48.922;9.444;2023-02-28T08:30:32;9.50;;;8.50;;
7517;SDS011;3800;48.922;9.444;2023-02-28T08:33:00;11.40;;;8.10;;
7517;SDS011;3800;48.922;9.444;2023-02-28T08:35:28;10.47;;;8.00;;
7517;SDS011;3800;48.922;9.444;2023-02-28T08:37:56;8.77;;;7.67;;
7517;SDS011;3800;48.922;9.444;2023-02-28T08:40:24;9.67;;;8.50;;
7517;SDS011;3800;48.922;9.444;2023-02-28T08:42:53;9.10;;;8.17;;
7517;SDS011;3800;48.922;9.444;2023-02-28T08:45:20;9.60;;;8.60;;
7517;SDS011;3800;48.922;9.444;2023-02-28T08:47:48;11.60;;;9.13;;
7517;SDS011;3800;48.922;9.444;2023-02-28T08:50:17;10.87;;;8.00;;
7517;SDS011;3800;48.922;9.444;2023-02-28T08:52:45;10.20;;;8.53;;
7517;SDS011;3800;48.922;9.444;2023-02-28T08:55:13;11.03;;;8.57;;
7517;SDS011;3800;48.922;9.444;2023-02-28T08:57:41;10.67;;;8.77;;
7517;SDS011;3800;48.922;9.444;2023-02-28T09:00:09;8.90;;;8.00;;
7517;SDS011;3800;48.922;9.444;2023-02-28T09:02:38;10.77;;;8.97;;
7517;SDS011;3800;48.922;9.444;2023-02-28T09:05:05;11.00;;;8.57;;
7517;SDS011;3800;48.922;9.444;2023-02-28T09:07:33;9.80;;;8.10;;
7517;SDS011;3800;48.922;9.444;2023-02-28T09:10:01;9.60;;;8.60;;
7517;SDS011;3800;48.922;9.444;2023-02-28T09:12:32;11.80;;;8.83;;
7517;SDS011;3800;48.922;9.444;2023-02-28T09:14:58;10.63;;;8.97;;
7517;SDS011;3800;48.922;9.444;2023-02-28T09:17:26;10.60;;;9.00;;
7517;SDS011;3800;48.922;9.444;2023-02-28T09:19:53;9.30;;;8.27;;
7517;SDS011;3800;48.922;9.444;2023-02-28T09:22:23;10.87;;;9.33;;
7517;SDS011;3800;48.922;9.444;2023-02-28T09:24:51;11.40;;;9.17;;
7517;SDS011;3800;48.922;9.444;2023-02-28T09:27:19;11.33;;;8.50;;
7517;SDS011;3800;48.922;9.444;2023-02-28T09:29:47;10.83;;;8.23;;
7517;SDS011;3800;48.922;9.444;2023-02-28T09:32:15;11.00;;;8.43;;
7517;SDS011;3800;48.922;9.444;2023-02-28T09:34:42;10.47;;;8.50;;
7517;SDS011;3800;48.922;9.444;2023-02-28T09:37:10;9.07;;;8.10;;
7517;SDS011;3800;48.922;9.444;2023-02-28T09:39:38;11.23;;;8.00;;
7517;SDS011;3800;48.922;9.444;2023-02-28T09:42:05;9.27;;;7.93;;
7517;SDS011;3800;48.922;9.444;2023-02-28T09:44:36;9.50;;;7.80;;
7517;SDS011;3800;48.922;9.444;2023-02-28T09:47:12;10.53;;;8.30;;
7517;SDS011;3800;48.922;9.444;2023-02-28T09:49:40;11.67;;;8.80;;
7517;SDS011;3800;48.922;9.444;2023-02-28T09:52:10;10.00;;;8.33;;
7517;SDS011;3800;48.922;9.444;2023-02-28T09:54:36;9.83;;;8.00;;
7517;SDS011;3800;48.922;9.444;2023-02-28T09:57:08;9.20;;;8.20;;
7517;SDS011;3800;48.922;9.444;2023-02-28T09:59:42;12.67;;;8.57;;
7517;SDS011;3800;48.922;9.444;2023-02-28T10:02:17;10.50;;;8.13;;
7517;SDS011;3800;48.922;9.444;2023-02-28T10:04:45;9.47;;;8.20;;
7517;SDS011;3800;48.922;9.444;2023-02-28T10:07:17;9.70;;;8.13;;
7517;SDS011;3800;48.922;9.444;2023-02-28T10:09:43;10.07;;;8.20;;
7517;SDS011;3800;48.922;9.444;2023-02-28T10:12:11;10.03;;;8.47;;
7517;SDS011;3800;48.922;9.444;2023-02-28T10:14:38;9.13;;;8.13;;
7517;SDS011;3800;48.922;9.444;2023-02-28T10:17:09;12.30;;;8.67;;
7517;SDS011;3800;48.922;9.444;2023-02-28T10:19:56;10.43;;;8.37;;
7517;SDS011;3800;48.922;9.444;2023-02-28T10:22:35;10.37;;;8.43;;
7517;SDS011;3800;48.922;9.444;2023-02-28T10:25:05;12.87;;;8.13;;
7517;SDS011;3800;48.922;9.444;2023-02-28T10:27:34;9.43;;;8.20;;
7517;SDS011;3800;48.922;9.444;2023-02-28T10:30:03;9.23;;;7.30;;
7517;SDS011;3800;48.922;9.444;2023-02-28T10:32:33;9.30;;;7.97;;
7517;SDS011;3800;48.922;9.444;2023-02-28T10:35:01;8.73;;;7.83;;
7517;SDS011;3800;48.922;9.444;2023-02-28T10:37:34;9.53;;;7.70;;
7517;SDS011;3800;48.922;9.444;2023-02-28T10:40:01;9.03;;;7.53;;
7517;SDS011;3800;48.922;9.444;2023-02-28T10:42:29;9.40;;;8.10;;
7517;SDS011;3800;48.922;9.444;2023-02-28T10:45:04;8.80;;;7.90;;
7517;SDS011;3800;48.922;9.444;2023-02-28T10:47:48;10.30;;;7.57;;
7517;SDS011;3800;48.922;9.444;2023-02-28T10:52:54;9.50;;;7.67;;
7517;SDS011;3800;48.922;9.444;2023-02-28T10:55:23;10.77;;;8.30;;
7517;SDS011;3800;48.922;9.444;2023-02-28T10:57:49;10.00;;;8.23;;
7517;SDS011;3800;48.922;9.444;2023-02-28T11:00:19;9.57;;;8.03;;
7517;SDS011;3800;48.922;9.444;2023-02-28T11:02:46;8.63;;;7.80;;
7517;SDS011;3800;48.922;9.444;2023-02-28T11:07:52;8.80;;;7.50;;
7517;SDS011;3800;48.922;9.444;2023-02-28T11:10:21;8.00;;;7.17;;
7517;SDS011;3800;48.922;9.444;2023-02-28T11:12:48;10.50;;;8.00;;
7517;SDS011;3800;48.922;9.444;2023-02-28T11:15:21;12.53;;;8.10;;
7517;SDS011;3800;48.922;9.444;2023-02-28T11:17:53;8.90;;;8.00;;
7517;SDS011;3800;48.922;9.444;2023-02-28T11:20:23;8.33;;;7.27;;
7517;SDS011;3800;48.922;9.444;2023-02-28T11:22:52;9.90;;;8.00;;
7517;SDS011;3800;48.922;9.444;2023-02-28T11:25:23;8.43;;;7.50;;
7517;SDS011;3800;48.922;9.444;2023-02-28T11:27:51;11.80;;;8.53;;
7517;SDS011;3800;48.922;9.444;2023-02-28T11:32:54;9.13;;;7.73;;
7517;SDS011;3800;48.922;9.444;2023-02-28T11:35:25;9.80;;;8.20;;
7517;SDS011;3800;48.922;9.444;2023-02-28T11:37:52;8.97;;;8.07;;
7517;SDS011;3800;48.922;9.444;2023-02-28T11:40:30;8.33;;;7.40;;
7517;SDS011;3800;48.922;9.444;2023-02-28T11:45:36;11.47;;;8.30;;
7517;SDS011;3800;48.922;9.444;2023-02-28T11:48:02;8.73;;;7.43;;
7517;SDS011;3800;48.922;9.444;2023-02-28T11:50:49;9.73;;;8.20;;
7517;SDS011;3800;48.922;9.444;2023-02-28T11:53:21;9.60;;;8.10;;
7517;SDS011;3800;48.922;9.444;2023-02-28T11:55:57;9.40;;;7.57;;
7517;SDS011;3800;48.922;9.444;2023-02-28T11:58:31;8.27;;;7.27;;
7517;SDS011;3800;48.922;9.444;2023-02-28T12:03:39;9.13;;;8.00;;
7517;SDS011;3800;48.922;9.444;2023-02-28T12:06:18;8.70;;;7.40;;
7517;SDS011;3800;48.922;9.444;2023-02-28T12:09:10;9.87;;;7.83;;
7517;SDS011;3800;48.922;9.444;2023-02-28T12:11:55;9.23;;;8.03;;
7517;SDS011;3800;48.922;9.444;2023-02-28T12:14:30;9.40;;;7.83;;
7517;SDS011;3800;48.922;9.444;2023-02-28T12:17:34;10.63;;;7.30;;
7517;SDS011;3800;48.922;9.444;2023-02-28T12:19:51;10.10;;;8.17;;
7517;SDS011;3800;48.922;9.444;2023-02-28T12:22:28;9.73;;;8.10;;
7517;SDS011;3800;48.922;9.444;2023-02-28T12:25:22;11.77;;;7.73;;
7517;SDS011;3800;48.922;9.444;2023-02-28T12:27:49;10.03;;;7.70;;
7517;SDS011;3800;48.922;9.444;2023-02-28T12:30:19;8.97;;;7.37;;
7517;SDS011;3800;48.922;9.444;2023-02-28T12:32:48;14.17;;;7.70;;
7517;SDS011;3800;48.922;9.444;2023-02-28T12:35:18;10.03;;;7.80;;
7517;SDS011;3800;48.922;9.444;2023-02-28T12:37:46;9.47;;;8.37;;
7517;SDS011;3800;48.922;9.444;2023-02-28T12:40:17;9.83;;;7.97;;
7517;SDS011;3800;48.922;9.444;2023-02-28T12:42:49;10.03;;;7.80;;
7517;SDS011;3800;48.922;9.444;2023-02-28T12:45:18;8.47;;;7.60;;
7517;SDS011;3800;48.922;9.444;2023-02-28T12:47:46;8.73;;;7.77;;
7517;SDS011;3800;48.922;9.444;2023-02-28T12:50:13;9.07;;;8.13;;
7517;SDS011;3800;48.922;9.444;2023-02-28T12:52:46;8.47;;;7.57;;
7517;SDS011;3800;48.922;9.444;2023-02-28T12:55:14;9.07;;;7.63;;
7517;SDS011;3800;48.922;9.444;2023-02-28T12:57:46;11.57;;;8.00;;
7517;SDS011;3800;48.922;9.444;2023-02-28T13:00:18;11.47;;;8.03;;
7517;SDS011;3800;48.922;9.444;2023-02-28T13:02:52;10.17;;;8.03;;
7517;SDS011;3800;48.922;9.444;2023-02-28T13:05:39;8.90;;;7.80;;
7517;SDS011;3800;48.922;9.444;2023-02-28T13:08:23;9.10;;;7.70;;
7517;SDS011;3800;48.922;9.444;2023-02-28T13:11:06;13.87;;;8.13;;
7517;SDS011;3800;48.922;9.444;2023-02-28T13:13:34;9.90;;;7.87;;
7517;SDS011;3800;48.922;9.444;2023-02-28T13:16:07;11.00;;;8.10;;
7517;SDS011;3800;48.922;9.444;2023-02-28T13:18:38;9.27;;;7.43;;
7517;SDS011;3800;48.922;9.444;2023-02-28T13:21:07;8.80;;;7.90;;
7517;SDS011;3800;48.922;9.444;2023-02-28T13:23:40;8.43;;;7.60;;
7517;SDS011;3800;48.922;9.444;2023-02-28T13:29:32;8.40;;;7.57;;
7517;SDS011;3800;48.922;9.444;2023-02-28T13:35:12;8.90;;;7.60;;
7517;SDS011;3800;48.922;9.444;2023-02-28T13:37:36;8.20;;;7.40;;
7517;SDS011;3800;48.922;9.444;2023-02-28T13:42:54;9.27;;;8.20;;
7517;SDS011;3800;48.922;9.444;2023-02-28T13:45:23;9.73;;;8.00;;
7517;SDS011;3800;48.922;9.444;2023-02-28T13:47:52;10.10;;;7.50;;
7517;SDS011;3800;48.922;9.444;2023-02-28T13:50:27;8.27;;;7.37;;
7517;SDS011;3800;48.922;9.444;2023-02-28T13:53:03;8.37;;;7.53;;
7517;SDS011;3800;48.922;9.444;2023-02-28T13:55:37;10.20;;;8.30;;
7517;SDS011;3800;48.922;9.444;2023-02-28T13:58:27;9.53;;;8.53;;
7517;SDS011;3800;48.922;9.444;2023-02-28T14:01:10;8.53;;;7.73;;
7517;SDS011;3800;48.922;9.444;2023-02-28T14:03:48;11.07;;;8.03;;
7517;SDS011;3800;48.922;9.444;2023-02-28T14:06:18;10.93;;;8.30;;
7517;SDS011;3800;48.922;9.444;2023-02-28T14:08:54;10.03;;;7.87;;
7517;SDS011;3800;48.922;9.444;2023-02-28T14:11:32;14.20;;;9.37;;
7517;SDS011;3800;48.922;9.444;2023-02-28T14:13:59;11.23;;;7.97;;
7517;SDS011;3800;48.922;9.444;2023-02-28T14:16:27;11.30;;;8.90;;
7517;SDS011;3800;48.922;9.444;2023-02-28T14:19:01;9.73;;;8.73;;
7517;SDS011;3800;48.922;9.444;2023-02-28T14:21:29;12.77;;;8.23;;
7517;SDS011;3800;48.922;9.444;2023-02-28T14:24:06;9.17;;;8.17;;
7517;SDS011;3800;48.922;9.444;2023-02-28T14:29:54;8.63;;;7.73;;
7517;SDS011;3800;48.922;9.444;2023-02-28T14:35:31;8.83;;;7.83;;
7517;SDS011;3800;48.922;9.444;2023-02-28T14:38:00;10.80;;;9.17;;
7517;SDS011;3800;48.922;9.444;2023-02-28T14:40:29;10.47;;;8.63;;
7517;SDS011;3800;48.922;9.444;2023-02-28T14:42:58;9.30;;;8.03;;
7517;SDS011;3800;48.922;9.444;2023-02-28T14:45:26;9.47;;;8.47;;
7517;SDS011;3800;48.922;9.444;2023-02-28T14:47:53;9.37;;;8.47;;
7517;SDS011;3800;48.922;9.444;2023-02-28T14:50:21;9.53;;;8.53;;
7517;SDS011;3800;48.922;9.444;2023-02-28T14:52:51;11.60;;;8.63;;
7517;SDS011;3800;48.922;9.444;2023-02-28T14:55:19;9.23;;;7.90;;
7517;SDS011;3800;48.922;9.444;2023-02-28T14:57:51;10.23;;;8.00;;
7517;SDS011;3800;48.922;9.444;2023-02-28T15:00:23;9.33;;;8.33;;
7517;SDS011;3800;48.922;9.444;2023-02-28T15:02:49;9.70;;;8.40;;
7517;SDS011;3800;48.922;9.444;2023-02-28T15:05:32;9.33;;;8.10;;
7517;SDS011;3800;48.922;9.444;2023-02-28T15:10:49;9.10;;;7.90;;
7517;SDS011;3800;48.922;9.444;2023-02-28T15:13:14;9.57;;;7.87;;
7517;SDS011;3800;48.922;9.444;2023-02-28T15:15:45;9.73;;;8.40;;
7517;SDS011;3800;48.922;9.444;2023-02-28T15:18:16;8.50;;;7.60;;
7517;SDS011;3800;48.922;9.444;2023-02-28T15:20:43;9.73;;;8.57;;
7517;SDS011;3800;48.922;9.444;2023-02-28T15:23:12;9.80;;;8.80;;
7517;SDS011;3800;48.922;9.444;2023-02-28T15:25:40;9.63;;;8.40;;
7517;SDS011;3800;48.922;9.444;2023-02-28T15:28:11;8.80;;;7.87;;
7517;SDS011;3800;48.922;9.444;2023-02-28T15:30:36;9.63;;;8.27;;
7517;SDS011;3800;48.922;9.444;2023-02-28T15:33:07;10.67;;;8.57;;
7517;SDS011;3800;48.922;9.444;2023-02-28T15:35:49;9.00;;;8.10;;
7517;SDS011;3800;48.922;9.444;2023-02-28T15:38:24;9.50;;;8.50;;
7517;SDS011;3800;48.922;9.444;2023-02-28T15:40:56;9.07;;;7.97;;
7517;SDS011;3800;48.922;9.444;2023-02-28T15:43:26;9.07;;;8.17;;
7517;SDS011;3800;48.922;9.444;2023-02-28T15:46:04;9.53;;;8.40;;
7517;SDS011;3800;48.922;9.444;2023-02-28T15:48:36;11.33;;;8.57;;
7517;SDS011;3800;48.922;9.444;2023-02-28T15:51:08;8.43;;;7.60;;
7517;SDS011;3800;48.922;9.444;2023-02-28T15:53:36;10.97;;;8.73;;
7517;SDS011;3800;48.922;9.444;2023-02-28T15:56:04;9.90;;;8.87;;
7517;SDS011;3800;48.922;9.444;2023-02-28T15:58:32;12.63;;;9.87;;
7517;SDS011;3800;48.922;9.444;2023-02-28T16:01:01;10.13;;;8.97;;
7517;SDS011;3800;48.922;9.444;2023-02-28T16:03:32;11.53;;;9.30;;
7517;SDS011;3800;48.922;9.444;2023-02-28T16:08:49;11.23;;;8.67;;
7517;SDS011;3800;48.922;9.444;2023-02-28T16:11:18;9.63;;;8.57;;